Seattle, Washington
Current Conditions -  °F | °C
As of 9:21 AM on Sunday 23 Nov 2014 (Local Time) from KBFI Reporting Station
Overcast Overcast  
Wind Chill: 11°   Ceiling: 2700
Heat Index: 11°   Visibility: 10mi
Dew Point:   Wind: 8mph
Humidity: 76%   Direction: 180°S
Pressure: 30.1"   Gusts: NA
Location:  47.6°N, 122.32°W
Report Text: KBFI 231721Z 18007KT 10SM FEW019 BKN027 OVC095 11/07 A3010 RMK AO2
Loading
Personal Weather Stations






























Interactive Weather Map New forecast layout! Learn more

10-Day Weather Forecast

Advertisements
Track Severe Weather on mobile